Terminal Aerodrome Forecast
Issued by NWS

Home | Current Version | Previous Version | Text Only | Print | Product List | Glossary On
Versions: 1 2 3 4 5 6 7 8 9 10 11 12 13
000
FTUS42 TJSJ 271740
TAFJPS
TAF
TJPS 271740Z 2718/2818 08010G15KT P6SM SCT025 BKN050
     FM272200 VRB15G25KT P6SM VCTS SCT025 BKN040CB
      TEMPO 2801/2805 VRB15G30KT 3SM +TSRA BKN020CB
     FM281500 13010G20KT P6SM VCSH SCT025 BKN050
      AMD NOT SKED TIL 280300=

USA.gov is the U.S. government's official web portal to all federal, state and local government web resources and services.